Time;durP1;ratioP1;P1;durP2;ratioP2;P2;SDS_P1;SDS_P2;PMS_P1;PMS_P2;Temp;Humidity;BMP_temperature;BMP_pressure;BME280_temperature;BME280_humidity;BME280_pressure;Samples;Min_cycle;Max_cycle;Signal;HPM_P1;HPM_P2
2024/01/08 00:00:19;;;;;;;12.80;2.13;;;;;;;;;;4923867;29;20062;-90
2024/01/08 00:02:50;;;;;;;19.00;2.30;;;;;;;;;;4940658;29;20047;-91
2024/01/08 00:05:20;;;;;;;16.40;2.42;;;;;;;;;;4939790;29;20058;-92
2024/01/08 00:07:50;;;;;;;11.45;2.13;;;;;;;;;;4939343;29;20058;-91
2024/01/08 00:10:23;;;;;;;9.20;2.05;;;;;;;;;;4925698;29;20051;-89
2024/01/08 00:12:54;;;;;;;11.65;2.05;;;;;;;;;;4939358;29;20051;-91
2024/01/08 00:15:27;;;;;;;13.23;2.78;;;;;;;;;;4924781;29;20387;-89
2024/01/08 00:17:58;;;;;;;15.43;2.75;;;;;;;;;;4939417;29;20055;-90
2024/01/08 00:20:29;;;;;;;;;;;;;;;;;;4926722;29;20059;-89
2024/01/08 00:23:01;;;;;;;14.68;2.40;;;;;;;;;;4927543;29;19976;-90
2024/01/08 00:25:32;;;;;;;14.88;2.13;;;;;;;;;;4940979;29;20047;-91
2024/01/08 00:28:19;;;;;;;16.88;2.72;;;;;;;;;;4883857;29;20069;-90
2024/01/08 00:30:49;;;;;;;14.02;2.28;;;;;;;;;;4881324;29;20059;-90
2024/01/08 00:33:20;;;;;;;11.13;2.20;;;;;;;;;;4863890;29;20056;-92
2024/01/08 00:35:54;;;;;;;13.70;2.50;;;;;;;;;;4879498;29;20057;-90
2024/01/08 00:38:25;;;;;;;9.30;2.13;;;;;;;;;;4863761;29;20053;-92
2024/01/08 00:40:56;;;;;;;12.48;2.30;;;;;;;;;;4878276;29;20053;-90
2024/01/08 00:43:26;;;;;;;10.05;2.25;;;;;;;;;;4861073;29;20065;-90
2024/01/08 00:46:08;;;;;;;15.95;2.38;;;;;;;;;;4830391;29;20052;-90
2024/01/08 00:48:39;;;;;;;9.38;2.63;;;;;;;;;;4855611;29;20053;-88
2024/01/08 00:55:31;;;;;;;11.93;2.58;;;;;;;;;;4866157;29;20057;-92
2024/01/08 00:58:30;;;;;;;6.07;2.28;;;;;;;;;;4847342;29;20053;-92
2024/01/08 01:01:06;;;;;;;9.45;2.58;;;;;;;;;;4862296;29;20053;-89
2024/01/08 01:03:36;;;;;;;8.18;2.50;;;;;;;;;;4846922;29;20444;-90
2024/01/08 01:06:32;;;;;;;5.78;1.88;;;;;;;;;;4873418;29;20056;-89
2024/01/08 01:09:05;;;;;;;7.10;1.90;;;;;;;;;;4886447;29;20040;-91
2024/01/08 01:11:36;;;;;;;7.43;2.50;;;;;;;;;;4883880;29;20040;-86
2024/01/08 01:14:06;;;;;;;10.18;2.47;;;;;;;;;;4897041;29;20052;-89
2024/01/08 01:16:37;;;;;;;8.52;2.38;;;;;;;;;;4912549;29;20056;-90
2024/01/08 01:19:08;;;;;;;11.25;2.15;;;;;;;;;;4901785;29;20630;-89
2024/01/08 01:21:38;;;;;;;17.90;2.72;;;;;;;;;;4906292;29;20051;-89
2024/01/08 01:24:09;;;;;;;18.20;2.20;;;;;;;;;;4908861;29;20051;-88
2024/01/08 01:26:39;;;;;;;8.93;2.00;;;;;;;;;;4905913;29;20047;-89
2024/01/08 01:29:35;;;;;;;8.05;2.20;;;;;;;;;;4923056;29;20067;-89
2024/01/08 01:32:09;;;;;;;9.35;2.15;;;;;;;;;;4924222;29;20058;-91
2024/01/08 01:34:40;;;;;;;11.18;2.38;;;;;;;;;;4939397;29;20051;-91
2024/01/08 01:37:10;;;;;;;9.82;2.30;;;;;;;;;;4940077;29;20059;-89
2024/01/08 01:39:41;;;;;;;14.85;3.28;;;;;;;;;;4939780;29;20047;-91
2024/01/08 01:42:13;;;;;;;7.22;2.22;;;;;;;;;;4924422;29;20055;-91
2024/01/08 01:44:44;;;;;;;15.40;2.90;;;;;;;;;;4925716;29;20043;-91
2024/01/08 01:47:16;;;;;;;10.35;3.17;;;;;;;;;;4940518;29;20431;-91
2024/01/08 01:49:50;;;;;;;16.60;2.70;;;;;;;;;;4924156;29;20058;-90
2024/01/08 01:52:21;;;;;;;12.45;3.65;;;;;;;;;;4925637;29;20055;-92
2024/01/08 01:54:54;;;;;;;8.77;2.53;;;;;;;;;;4916147;29;20052;-90
2024/01/08 01:57:24;;;;;;;10.27;2.58;;;;;;;;;;4920074;29;20071;-90
2024/01/08 01:59:55;;;;;;;10.48;2.35;;;;;;;;;;4904669;29;20055;-90
2024/01/08 02:02:29;;;;;;;12.93;2.58;;;;;;;;;;4917254;29;20044;-90
2024/01/08 02:04:59;;;;;;;10.13;2.30;;;;;;;;;;4918593;29;20052;-89
2024/01/08 02:07:31;;;;;;;5.72;2.45;;;;;;;;;;4929929;29;20047;-90
2024/01/08 02:17:10;;;;;;;8.75;2.65;;;;;;;;;;5464138;23;20047;-91
2024/01/08 02:19:41;;;;;;;10.02;2.38;;;;;;;;;;4930519;28;20047;-89
2024/01/08 02:22:12;;;;;;;8.63;2.25;;;;;;;;;;4942415;28;20054;-93
2024/01/08 02:24:43;;;;;;;7.97;2.58;;;;;;;;;;4966979;28;20047;-89
2024/01/08 02:27:14;;;;;;;13.70;2.65;;;;;;;;;;4950111;28;20039;-90
2024/01/08 02:29:45;;;;;;;22.35;2.90;;;;;;;;;;4936083;28;20047;-90
2024/01/08 02:32:15;;;;;;;12.98;2.85;;;;;;;;;;4950460;28;20054;-89
2024/01/08 02:34:45;;;;;;;7.13;2.42;;;;;;;;;;4957249;28;20051;-87
2024/01/08 02:37:15;;;;;;;9.90;2.53;;;;;;;;;;4957941;28;20054;-89
2024/01/08 02:39:45;;;;;;;11.48;2.53;;;;;;;;;;4957824;28;20394;-88
2024/01/08 02:42:18;;;;;;;8.25;2.67;;;;;;;;;;4941687;28;20047;-89
2024/01/08 02:44:48;;;;;;;7.63;2.35;;;;;;;;;;4956877;28;20051;-89
2024/01/08 02:47:19;;;;;;;7.20;2.90;;;;;;;;;;4941465;28;20390;-90
2024/01/08 02:49:49;;;;;;;11.63;2.70;;;;;;;;;;4957460;28;20055;-89
2024/01/08 02:52:19;;;;;;;8.80;2.40;;;;;;;;;;4957226;28;20058;-88
2024/01/08 02:54:50;;;;;;;9.15;3.50;;;;;;;;;;4932416;29;20414;-89
2024/01/08 02:57:21;;;;;;;11.80;3.00;;;;;;;;;;4922256;29;20063;-90
2024/01/08 02:59:51;;;;;;;8.45;2.53;;;;;;;;;;4937193;29;20051;-89
2024/01/08 03:02:21;;;;;;;10.90;2.67;;;;;;;;;;4937280;29;20063;-90
2024/01/08 03:04:52;;;;;;;8.35;2.75;;;;;;;;;;4922978;29;20055;-91
2024/01/08 03:07:24;;;;;;;;;;;;;;;;;;4923265;29;21195;-89
2024/01/08 03:09:57;;;;;;;6.78;2.58;;;;;;;;;;4937895;29;19922;-90
2024/01/08 03:12:27;;;;;;;8.20;2.70;;;;;;;;;;4938521;29;20059;-91
2024/01/08 03:14:58;;;;;;;10.68;2.97;;;;;;;;;;4938031;29;20513;-91
2024/01/08 03:17:29;;;;;;;7.93;3.00;;;;;;;;;;4937674;29;20399;-90
2024/01/08 03:20:00;;;;;;;10.35;3.88;;;;;;;;;;4939745;29;20055;-89
2024/01/08 03:22:30;;;;;;;11.32;3.13;;;;;;;;;;4928120;29;20426;-89
2024/01/08 03:25:00;;;;;;;8.57;2.72;;;;;;;;;;4938712;28;20050;-92
2024/01/08 03:27:32;;;;;;;9.45;2.70;;;;;;;;;;4961890;28;20062;-89
2024/01/08 03:30:02;;;;;;;8.00;2.53;;;;;;;;;;4966180;28;20506;-91
2024/01/08 03:32:33;;;;;;;10.38;2.40;;;;;;;;;;4976832;28;20055;-91
2024/01/08 03:35:04;;;;;;;8.30;2.72;;;;;;;;;;4977148;28;20038;-88
2024/01/08 03:37:36;;;;;;;7.20;2.38;;;;;;;;;;4967264;28;20049;-89
2024/01/08 03:40:09;;;;;;;10.48;2.95;;;;;;;;;;4982802;28;20041;-89
2024/01/08 03:42:39;;;;;;;7.53;2.53;;;;;;;;;;4983021;28;20041;-87
2024/01/08 03:45:09;;;;;;;11.77;3.13;;;;;;;;;;4961637;28;20501;-89
2024/01/08 03:47:42;;;;;;;10.75;2.92;;;;;;;;;;4959293;28;20054;-89
2024/01/08 03:50:15;;;;;;;7.95;2.55;;;;;;;;;;4943181;28;20058;-88
2024/01/08 03:52:45;;;;;;;10.00;3.05;;;;;;;;;;4944098;28;20473;-87
2024/01/08 03:55:16;;;;;;;9.93;2.65;;;;;;;;;;4958459;28;20051;-88
2024/01/08 03:57:47;;;;;;;7.28;2.95;;;;;;;;;;4958326;28;20062;-88
2024/01/08 04:00:18;;;;;;;;;;;;;;;;;;4958290;28;20062;-89
2024/01/08 04:02:48;;;;;;;7.72;2.55;;;;;;;;;;4942946;28;19932;-88
2024/01/08 04:05:20;;;;;;;7.50;3.35;;;;;;;;;;4957932;28;20066;-89
2024/01/08 04:07:52;;;;;;;;;;;;;;;;;;4943440;28;20051;-90
2024/01/08 04:10:23;;;;;;;9.60;3.53;;;;;;;;;;4942409;28;19922;-89
2024/01/08 04:12:54;;;;;;;12.85;3.20;;;;;;;;;;4942251;28;20502;-88
2024/01/08 04:15:24;;;;;;;9.00;3.28;;;;;;;;;;4941581;28;20050;-89
2024/01/08 04:17:54;;;;;;;10.00;3.42;;;;;;;;;;4957354;28;20058;-89
2024/01/08 04:20:25;;;;;;;9.15;3.25;;;;;;;;;;4958542;28;20058;-88
2024/01/08 04:22:55;;;;;;;5.60;2.90;;;;;;;;;;4957292;28;20051;-89
2024/01/08 04:25:26;;;;;;;8.50;3.40;;;;;;;;;;4957742;28;20402;-90
2024/01/08 04:27:56;;;;;;;8.38;2.80;;;;;;;;;;4941746;28;20058;-89
2024/01/08 04:30:28;;;;;;;15.73;3.47;;;;;;;;;;4957396;28;20061;-88
2024/01/08 04:32:59;;;;;;;11.93;3.30;;;;;;;;;;4958300;28;20055;-88
2024/01/08 04:35:30;;;;;;;8.70;3.20;;;;;;;;;;4957067;28;20066;-89
2024/01/08 04:38:02;;;;;;;;;;;;;;;;;;4942506;28;20051;-90
2024/01/08 04:40:31;;;;;;;7.75;2.92;;;;;;;;;;4942593;28;19929;-90
2024/01/08 04:43:08;;;;;;;11.15;2.85;;;;;;;;;;4956469;28;20490;-89
2024/01/08 04:45:38;;;;;;;5.70;3.05;;;;;;;;;;4957436;28;20490;-87
2024/01/08 04:48:08;;;;;;;8.52;3.20;;;;;;;;;;4942193;28;20046;-89
2024/01/08 04:50:39;;;;;;;10.13;3.22;;;;;;;;;;4958306;28;20055;-88
2024/01/08 04:53:11;;;;;;;5.65;3.10;;;;;;;;;;4941411;28;20050;-88
2024/01/08 04:55:43;;;;;;;5.80;2.88;;;;;;;;;;4956991;28;20051;-88
2024/01/08 04:58:13;;;;;;;9.02;3.38;;;;;;;;;;4957161;28;20046;-89
2024/01/08 05:00:43;;;;;;;8.65;3.05;;;;;;;;;;4940842;28;20054;-87
2024/01/08 05:03:15;;;;;;;8.80;2.78;;;;;;;;;;4941570;28;20058;-87
2024/01/08 05:05:46;;;;;;;7.30;3.15;;;;;;;;;;4956929;28;20043;-87
2024/01/08 05:08:16;;;;;;;5.43;2.88;;;;;;;;;;4956607;28;20050;-89
2024/01/08 05:10:47;;;;;;;10.07;3.05;;;;;;;;;;4957023;28;20054;-90
2024/01/08 05:13:18;;;;;;;10.57;3.90;;;;;;;;;;4956585;28;20395;-90
2024/01/08 05:15:49;;;;;;;11.43;3.75;;;;;;;;;;4956945;28;20061;-89
2024/01/08 05:18:19;;;;;;;8.15;3.10;;;;;;;;;;4957202;28;20046;-91
2024/01/08 05:20:49;;;;;;;9.63;3.20;;;;;;;;;;4957100;28;20410;-89
2024/01/08 05:23:21;;;;;;;7.85;3.38;;;;;;;;;;4957031;28;20410;-88
2024/01/08 05:25:52;;;;;;;10.73;2.80;;;;;;;;;;4941239;28;20058;-90
2024/01/08 05:28:22;;;;;;;10.82;3.17;;;;;;;;;;4957265;28;20046;-90
2024/01/08 05:30:52;;;;;;;8.48;2.95;;;;;;;;;;4956304;28;20055;-89
2024/01/08 05:33:26;;;;;;;9.70;3.03;;;;;;;;;;4955996;28;20058;-90
2024/01/08 05:35:57;;;;;;;7.53;3.03;;;;;;;;;;4957635;28;20374;-88
2024/01/08 05:38:30;;;;;;;9.13;2.72;;;;;;;;;;4956772;28;20057;-88
2024/01/08 05:41:01;;;;;;;10.73;3.55;;;;;;;;;;4941024;28;20402;-88
2024/01/08 05:43:37;;;;;;;8.98;4.20;;;;;;;;;;4956988;28;20405;-89
2024/01/08 05:46:08;;;;;;;10.38;3.85;;;;;;;;;;4941096;28;20043;-89
2024/01/08 05:48:39;;;;;;;4.80;2.80;;;;;;;;;;4957548;28;20501;-89
2024/01/08 05:51:10;;;;;;;8.07;2.95;;;;;;;;;;4956722;28;20066;-88
2024/01/08 05:53:40;;;;;;;8.45;3.58;;;;;;;;;;4941624;28;20066;-89
2024/01/08 05:56:10;;;;;;;8.88;3.08;;;;;;;;;;4944927;28;20046;-91
2024/01/08 05:58:41;;;;;;;10.75;3.95;;;;;;;;;;4944932;28;20414;-89
2024/01/08 06:01:12;;;;;;;9.35;2.80;;;;;;;;;;4960140;28;20051;-89
2024/01/08 06:03:43;;;;;;;11.70;3.17;;;;;;;;;;4960015;28;20059;-89
2024/01/08 06:06:16;;;;;;;6.72;3.08;;;;;;;;;;4960606;28;20047;-89
2024/01/08 06:08:46;;;;;;;11.50;2.83;;;;;;;;;;4960353;28;20453;-90
2024/01/08 06:11:15;;;;;;;5.85;3.00;;;;;;;;;;4961194;28;20043;-89
2024/01/08 06:13:46;;;;;;;7.53;3.53;;;;;;;;;;4960572;28;20167;-89
2024/01/08 06:16:16;;;;;;;8.70;3.67;;;;;;;;;;4943747;28;20386;-88
2024/01/08 06:18:46;;;;;;;9.13;3.10;;;;;;;;;;4960278;28;20063;-91
2024/01/08 06:21:16;;;;;;;8.85;3.22;;;;;;;;;;4960098;28;20070;-89
2024/01/08 06:23:46;;;;;;;7.45;3.25;;;;;;;;;;4960495;28;20050;-88
2024/01/08 06:26:18;;;;;;;7.35;2.92;;;;;;;;;;4959859;28;20055;-89
2024/01/08 06:28:48;;;;;;;11.30;3.25;;;;;;;;;;4943604;28;20406;-88
2024/01/08 06:31:18;;;;;;;6.72;3.00;;;;;;;;;;4944204;28;20066;-87
2024/01/08 06:33:48;;;;;;;9.20;2.88;;;;;;;;;;4959381;28;20059;-87
2024/01/08 06:36:19;;;;;;;8.20;3.33;;;;;;;;;;4959139;28;20065;-87
2024/01/08 06:38:49;;;;;;;7.43;2.78;;;;;;;;;;4943778;28;20050;-87
2024/01/08 06:41:19;;;;;;;9.40;3.10;;;;;;;;;;4944248;28;20055;-88
2024/01/08 06:43:49;;;;;;;13.82;3.10;;;;;;;;;;4959337;28;20050;-87
2024/01/08 06:46:19;;;;;;;10.07;3.28;;;;;;;;;;4943411;28;20062;-88
2024/01/08 06:48:50;;;;;;;7.03;3.20;;;;;;;;;;4943575;28;20055;-88
2024/01/08 06:51:21;;;;;;;7.13;2.90;;;;;;;;;;4960572;28;20055;-88
2024/01/08 06:53:51;;;;;;;7.93;3.58;;;;;;;;;;4962244;28;20054;-88
2024/01/08 06:56:21;;;;;;;7.90;2.80;;;;;;;;;;4959683;28;20059;-87
2024/01/08 06:58:51;;;;;;;7.55;3.22;;;;;;;;;;4958725;28;20057;-87
2024/01/08 07:01:21;;;;;;;12.68;3.20;;;;;;;;;;4959094;28;20051;-87
2024/01/08 07:03:51;;;;;;;5.95;2.60;;;;;;;;;;4943419;28;20054;-87
2024/01/08 07:06:21;;;;;;;9.07;4.10;;;;;;;;;;4975329;28;20367;-88
2024/01/08 07:08:51;;;;;;;9.38;3.83;;;;;;;;;;4942551;28;20390;-87
2024/01/08 07:11:25;;;;;;;11.75;4.05;;;;;;;;;;4942945;28;20418;-86
2024/01/08 07:13:55;;;;;;;12.38;3.35;;;;;;;;;;4942827;28;20057;-86
2024/01/08 07:16:26;;;;;;;7.57;2.97;;;;;;;;;;4957854;28;20470;-87
2024/01/08 07:18:57;;;;;;;6.57;3.08;;;;;;;;;;4958321;28;20054;-87
2024/01/08 07:21:27;;;;;;;6.50;3.13;;;;;;;;;;4942406;28;20058;-87
2024/01/08 07:23:59;;;;;;;10.98;3.28;;;;;;;;;;4958827;28;20054;-87
2024/01/08 07:26:29;;;;;;;12.52;3.38;;;;;;;;;;4957836;28;20050;-88
2024/01/08 07:29:00;;;;;;;7.75;2.83;;;;;;;;;;4958068;28;20055;-87
2024/01/08 07:31:34;;;;;;;5.32;2.88;;;;;;;;;;4958416;28;20073;-86
2024/01/08 07:34:04;;;;;;;8.20;4.10;;;;;;;;;;4958556;28;20413;-87
2024/01/08 07:36:34;;;;;;;8.98;3.17;;;;;;;;;;4942434;28;20058;-87
2024/01/08 07:39:05;;;;;;;10.85;3.13;;;;;;;;;;4943034;28;20054;-88
2024/01/08 07:41:34;;;;;;;5.30;3.05;;;;;;;;;;4957737;28;20088;-89
2024/01/08 07:44:06;;;;;;;9.52;3.75;;;;;;;;;;4958634;28;20065;-88
2024/01/08 07:46:36;;;;;;;8.10;3.13;;;;;;;;;;4942462;28;20482;-89
2024/01/08 07:49:07;;;;;;;8.20;3.35;;;;;;;;;;4958612;28;20062;-87
2024/01/08 07:51:39;;;;;;;5.63;2.80;;;;;;;;;;4944021;28;20513;-89
2024/01/08 07:54:09;;;;;;;7.88;3.45;;;;;;;;;;4944234;28;20494;-87
2024/01/08 07:56:39;;;;;;;6.97;2.95;;;;;;;;;;4960944;28;20062;-88
2024/01/08 07:59:24;;;;;;;9.32;3.22;;;;;;;;;;4959575;28;20050;-87
2024/01/08 08:01:55;;;;;;;9.13;3.25;;;;;;;;;;4947312;28;20505;-90
2024/01/08 08:04:25;;;;;;;9.82;3.17;;;;;;;;;;4943425;28;20061;-88
2024/01/08 08:06:54;;;;;;;6.90;3.70;;;;;;;;;;4958446;28;20070;-89
2024/01/08 08:09:25;;;;;;;6.47;3.55;;;;;;;;;;4943488;28;20371;-89
2024/01/08 08:11:55;;;;;;;8.60;3.33;;;;;;;;;;4941974;28;20047;-88
2024/01/08 08:14:26;;;;;;;6.53;3.28;;;;;;;;;;4957900;28;20061;-89
2024/01/08 08:16:57;;;;;;;5.40;3.33;;;;;;;;;;4957139;28;20470;-88
2024/01/08 08:19:27;;;;;;;11.85;3.65;;;;;;;;;;4958331;28;20411;-90
2024/01/08 08:21:58;;;;;;;10.57;3.05;;;;;;;;;;4957737;28;20066;-88
2024/01/08 08:24:29;;;;;;;5.72;3.03;;;;;;;;;;4958314;28;20054;-88
2024/01/08 08:27:00;;;;;;;9.88;3.30;;;;;;;;;;4957758;28;20490;-92
2024/01/08 08:29:31;;;;;;;9.55;3.45;;;;;;;;;;4941417;28;20058;-89
2024/01/08 08:32:03;;;;;;;10.55;3.25;;;;;;;;;;4944887;29;20053;-90
2024/01/08 08:34:34;;;;;;;8.98;2.90;;;;;;;;;;4956972;28;20070;-89
2024/01/08 08:37:08;;;;;;;10.77;3.40;;;;;;;;;;4949939;28;20422;-89
2024/01/08 08:39:40;;;;;;;12.07;3.08;;;;;;;;;;4936297;29;20047;-87
2024/01/08 08:42:10;;;;;;;8.63;3.22;;;;;;;;;;4931883;28;20055;-90
2024/01/08 08:44:41;;;;;;;7.45;3.17;;;;;;;;;;4944449;29;20070;-90
2024/01/08 08:47:12;;;;;;;10.52;3.35;;;;;;;;;;4939222;28;20053;-89
2024/01/08 08:49:42;;;;;;;7.13;3.20;;;;;;;;;;4974552;28;20063;-89
2024/01/08 08:52:13;;;;;;;8.05;2.97;;;;;;;;;;4957431;28;20050;-89
2024/01/08 08:54:44;;;;;;;7.65;3.03;;;;;;;;;;4957371;28;20055;-89
2024/01/08 08:57:14;;;;;;;8.80;3.47;;;;;;;;;;4957040;28;20057;-92
2024/01/08 08:59:44;;;;;;;6.82;3.03;;;;;;;;;;4957163;28;20055;-90
2024/01/08 09:02:18;;;;;;;8.55;3.40;;;;;;;;;;4957547;28;20051;-91
2024/01/08 09:04:49;;;;;;;10.50;3.10;;;;;;;;;;4958207;28;20065;-89
2024/01/08 09:07:22;;;;;;;10.45;3.42;;;;;;;;;;4957317;28;20050;-90
2024/01/08 09:09:53;;;;;;;11.10;4.18;;;;;;;;;;4956941;28;20418;-91
2024/01/08 09:12:26;;;;;;;9.07;3.22;;;;;;;;;;4957471;28;20062;-90
2024/01/08 09:14:59;;;;;;;10.40;3.70;;;;;;;;;;4957139;28;20062;-91
2024/01/08 09:17:31;;;;;;;10.57;3.10;;;;;;;;;;4941293;28;20054;-89
2024/01/08 09:20:05;;;;;;;9.30;2.67;;;;;;;;;;4941551;28;20055;-91
2024/01/08 09:22:35;;;;;;;7.93;2.80;;;;;;;;;;4956594;28;20073;-89
2024/01/08 09:25:06;;;;;;;9.63;3.70;;;;;;;;;;4941516;28;20059;-87
2024/01/08 09:27:38;;;;;;;8.40;3.03;;;;;;;;;;4956549;28;20525;-90
2024/01/08 09:30:10;;;;;;;9.52;2.72;;;;;;;;;;4944874;28;20497;-89
2024/01/08 09:32:43;;;;;;;8.35;2.63;;;;;;;;;;4960780;28;20398;-91
2024/01/08 09:35:14;;;;;;;13.07;3.33;;;;;;;;;;4944463;28;20054;-89
2024/01/08 09:37:44;;;;;;;7.88;2.47;;;;;;;;;;4944768;28;20050;-89
2024/01/08 09:40:15;;;;;;;8.50;2.70;;;;;;;;;;4944355;28;20054;-88
2024/01/08 09:42:46;;;;;;;10.52;2.53;;;;;;;;;;4978483;28;20431;-86
2024/01/08 09:45:23;;;;;;;6.97;2.78;;;;;;;;;;4960890;28;20508;-90
2024/01/08 09:47:54;;;;;;;9.50;2.92;;;;;;;;;;4961115;28;20054;-88
2024/01/08 09:50:29;;;;;;;10.18;2.92;;;;;;;;;;4960221;28;20057;-89
2024/01/08 09:52:59;;;;;;;14.38;3.13;;;;;;;;;;4944517;28;20057;-88
2024/01/08 09:55:31;;;;;;;11.90;3.00;;;;;;;;;;4959787;28;20063;-86
2024/01/08 09:58:03;;;;;;;7.65;2.45;;;;;;;;;;4960173;28;20061;-88
2024/01/08 10:00:34;;;;;;;8.20;2.33;;;;;;;;;;4960864;28;20051;-89
2024/01/08 10:03:05;;;;;;;16.02;3.63;;;;;;;;;;4960215;28;20059;-86
2024/01/08 10:05:36;;;;;;;12.18;2.35;;;;;;;;;;4960912;28;20058;-88
2024/01/08 10:08:07;;;;;;;10.38;2.85;;;;;;;;;;4975621;28;20047;-86
2024/01/08 10:10:39;;;;;;;7.97;2.20;;;;;;;;;;4959083;28;20401;-85
2024/01/08 10:13:10;;;;;;;7.68;2.55;;;;;;;;;;4976665;28;20050;-86
2024/01/08 10:15:45;;;;;;;9.50;2.20;;;;;;;;;;4959453;28;20062;-85
2024/01/08 10:18:20;;;;;;;6.90;2.30;;;;;;;;;;4960664;28;20127;-85
2024/01/08 10:21:12;;;;;;;7.15;2.40;;;;;;;;;;4959728;28;20082;-86
2024/01/08 10:23:46;;;;;;;12.88;2.63;;;;;;;;;;4943776;28;20062;-86
2024/01/08 10:26:20;;;;;;;10.98;2.60;;;;;;;;;;4961093;28;20493;-87
2024/01/08 10:28:54;;;;;;;11.15;3.17;;;;;;;;;;4960126;28;20050;-87
2024/01/08 10:31:28;;;;;;;6.55;2.78;;;;;;;;;;4959632;28;20050;-90
2024/01/08 10:34:07;;;;;;;8.82;3.83;;;;;;;;;;4944638;28;20381;-88
2024/01/08 10:36:55;;;;;;;13.48;3.28;;;;;;;;;;4960797;28;20394;-88
2024/01/08 10:39:32;;;;;;;7.75;2.53;;;;;;;;;;4960945;28;20046;-88
2024/01/08 10:42:18;;;;;;;7.13;2.50;;;;;;;;;;4945354;28;20428;-89
2024/01/08 10:44:48;;;;;;;6.18;2.15;;;;;;;;;;4944140;28;20050;-87
2024/01/08 10:47:29;;;;;;;7.43;2.47;;;;;;;;;;4959381;28;20054;-88
2024/01/08 10:50:05;;;;;;;6.47;3.05;;;;;;;;;;4974941;28;20517;-88
2024/01/08 10:52:46;;;;;;;7.78;2.55;;;;;;;;;;4960310;28;20403;-88
2024/01/08 10:55:18;;;;;;;9.05;2.38;;;;;;;;;;4944549;28;20498;-88
2024/01/08 10:58:03;;;;;;;8.07;2.25;;;;;;;;;;4959911;28;20047;-86
2024/01/08 11:00:52;;;;;;;5.65;2.35;;;;;;;;;;4960162;28;20054;-87
2024/01/08 11:03:41;;;;;;;5.00;2.25;;;;;;;;;;4952841;28;20406;-89
2024/01/08 11:06:14;;;;;;;6.88;2.45;;;;;;;;;;4967473;28;20061;-88
2024/01/08 11:09:25;;;;;;;6.22;2.55;;;;;;;;;;4948817;28;20047;-87
2024/01/08 11:11:59;;;;;;;6.68;2.47;;;;;;;;;;4950461;29;20054;-87
2024/01/08 11:14:30;;;;;;;10.02;2.15;;;;;;;;;;4945750;28;20057;-88
2024/01/08 11:17:30;;;;;;;5.07;2.25;;;;;;;;;;4948824;29;20047;-85
2024/01/08 11:20:05;;;;;;;7.30;2.50;;;;;;;;;;4942815;29;20409;-87
2024/01/08 11:22:37;;;;;;;7.72;3.33;;;;;;;;;;4949750;28;20378;-87
2024/01/08 11:25:16;;;;;;;11.23;2.83;;;;;;;;;;4939062;29;20050;-86
2024/01/08 11:27:47;;;;;;;8.38;2.92;;;;;;;;;;4957669;29;20050;-87
2024/01/08 11:30:18;;;;;;;6.88;2.40;;;;;;;;;;4939166;29;20062;-86
2024/01/08 11:33:31;;;;;;;6.68;2.20;;;;;;;;;;4939446;29;20055;-89
2024/01/08 11:36:17;;;;;;;4.88;2.40;;;;;;;;;;4941821;29;20047;-88
2024/01/08 11:42:26;;;;;;;5.70;2.42;;;;;;;;;;4958174;29;20043;-90
2024/01/08 11:45:03;;;;;;;5.15;2.45;;;;;;;;;;4941073;29;20078;-90
2024/01/08 11:47:54;;;;;;;;;;;;;;;;;;4942009;29;20062;-88
2024/01/08 11:51:14;;;;;;;4.18;2.63;;;;;;;;;;4964344;28;19922;-90
2024/01/08 11:53:48;;;;;;;5.25;2.25;;;;;;;;;;4944129;28;20050;-91
2024/01/08 11:56:19;;;;;;;4.25;2.55;;;;;;;;;;4961337;28;20413;-92
2024/01/08 11:59:48;;;;;;;7.95;2.25;;;;;;;;;;4961471;28;20065;-92
2024/01/08 12:02:27;;;;;;;8.73;3.00;;;;;;;;;;4942285;28;20127;-90
2024/01/08 12:05:00;;;;;;;10.35;2.75;;;;;;;;;;4944371;28;20050;-88
2024/01/08 12:07:34;;;;;;;6.28;2.92;;;;;;;;;;4961661;28;20051;-93
2024/01/08 12:10:06;;;;;;;8.73;2.58;;;;;;;;;;4977462;28;20043;-90
2024/01/08 12:12:37;;;;;;;4.20;2.22;;;;;;;;;;4944932;28;20055;-92
2024/01/08 12:15:08;;;;;;;8.18;2.20;;;;;;;;;;4938144;28;20057;-89
2024/01/08 12:17:39;;;;;;;7.43;2.53;;;;;;;;;;4943571;28;20051;-88
2024/01/08 12:20:11;;;;;;;4.97;2.58;;;;;;;;;;4941429;28;20055;-91
2024/01/08 12:22:44;;;;;;;7.47;2.58;;;;;;;;;;4957210;28;20063;-89
2024/01/08 12:25:15;;;;;;;10.90;2.40;;;;;;;;;;4960421;28;20046;-90
2024/01/08 12:27:48;;;;;;;5.05;2.47;;;;;;;;;;4959530;28;20059;-88
2024/01/08 12:30:18;;;;;;;5.75;1.90;;;;;;;;;;4942120;28;20058;-92
2024/01/08 12:32:48;;;;;;;7.43;2.67;;;;;;;;;;4958676;28;20046;-90
2024/01/08 12:35:18;;;;;;;5.75;1.90;;;;;;;;;;4957630;28;20057;-91
2024/01/08 12:38:11;;;;;;;3.58;1.77;;;;;;;;;;4962754;28;20062;-89
2024/01/08 12:40:54;;;;;;;4.93;1.77;;;;;;;;;;4944689;28;20061;-90
2024/01/08 12:43:25;;;;;;;6.07;1.70;;;;;;;;;;4957229;28;20410;-91
2024/01/08 12:45:55;;;;;;;3.53;1.60;;;;;;;;;;4976924;28;20045;-92
2024/01/08 12:48:25;;;;;;;4.15;2.08;;;;;;;;;;4959142;28;20054;-90
2024/01/08 12:50:59;;;;;;;5.00;1.63;;;;;;;;;;4959540;28;20062;-91
2024/01/08 12:53:33;;;;;;;5.22;1.83;;;;;;;;;;4958688;29;20062;-93
2024/01/08 12:56:04;;;;;;;3.75;1.70;;;;;;;;;;4938295;29;20055;-89
2024/01/08 12:58:52;;;;;;;3.58;1.60;;;;;;;;;;4938298;29;20153;-91
2024/01/08 13:01:26;;;;;;;7.70;2.22;;;;;;;;;;4939503;29;20097;-91
2024/01/08 13:03:57;;;;;;;5.05;1.83;;;;;;;;;;4942577;29;20527;-91
2024/01/08 13:06:29;;;;;;;5.10;1.63;;;;;;;;;;4962579;29;20061;-93
2024/01/08 13:09:00;;;;;;;4.07;1.77;;;;;;;;;;4946576;29;20054;-91
2024/01/08 13:11:30;;;;;;;4.70;1.85;;;;;;;;;;4948487;29;20058;-87
2024/01/08 13:14:03;;;;;;;8.20;2.00;;;;;;;;;;4959979;29;20449;-93
2024/01/08 13:16:34;;;;;;;7.43;2.03;;;;;;;;;;4944759;29;20058;-93
2024/01/08 13:19:06;;;;;;;5.15;2.55;;;;;;;;;;4945878;29;20220;-90
2024/01/08 13:21:40;;;;;;;4.22;3.15;;;;;;;;;;4942983;28;20113;-88
2024/01/08 13:24:14;;;;;;;8.25;2.70;;;;;;;;;;4943799;29;20055;-91
2024/01/08 13:26:49;;;;;;;6.10;2.22;;;;;;;;;;4960641;28;20447;-88
2024/01/08 13:29:20;;;;;;;6.82;1.73;;;;;;;;;;4944218;29;20498;-90
2024/01/08 13:31:51;;;;;;;2.78;1.60;;;;;;;;;;4944199;28;20053;-89
2024/01/08 13:34:23;;;;;;;3.40;1.20;;;;;;;;;;4967214;28;20062;-87
2024/01/08 13:37:03;;;;;;;4.72;1.38;;;;;;;;;;4965221;28;20478;-88
2024/01/08 13:39:35;;;;;;;4.22;1.42;;;;;;;;;;4974584;28;20493;-89
2024/01/08 13:42:07;;;;;;;4.18;1.00;;;;;;;;;;4956823;28;20062;-89
2024/01/08 13:44:38;;;;;;;3.40;1.35;;;;;;;;;;4957047;28;20066;-86
2024/01/08 13:47:09;;;;;;;;;;;;;;;;;;4947329;28;20061;-86
2024/01/08 13:49:39;;;;;;;2.45;1.70;;;;;;;;;;4979704;28;19929;-87
2024/01/08 13:52:10;;;;;;;3.08;1.20;;;;;;;;;;4964147;28;20494;-86
2024/01/08 13:54:40;;;;;;;4.75;1.27;;;;;;;;;;4963550;28;20058;-84
2024/01/08 13:57:11;;;;;;;6.70;1.45;;;;;;;;;;4980362;28;20490;-86
2024/01/08 13:59:41;;;;;;;5.57;1.52;;;;;;;;;;4963653;28;20049;-86
2024/01/08 14:02:13;;;;;;;9.23;1.40;;;;;;;;;;4943937;28;20510;-87
2024/01/08 14:04:44;;;;;;;7.57;1.08;;;;;;;;;;4954853;28;20062;-85
2024/01/08 14:07:15;;;;;;;3.05;1.23;;;;;;;;;;4961794;28;20054;-85
2024/01/08 14:09:45;;;;;;;3.35;1.10;;;;;;;;;;4957501;28;20047;-85
2024/01/08 14:12:16;;;;;;;3.05;1.15;;;;;;;;;;4951278;28;20057;-90
2024/01/08 14:16:06;;;;;;;3.75;1.23;;;;;;;;;;4945229;29;20055;-86
2024/01/08 14:18:37;;;;;;;;;;;;;;;;;;4936900;29;20058;-86
2024/01/08 14:21:08;;;;;;;3.13;1.10;;;;;;;;;;4945712;29;19922;-87
2024/01/08 14:23:39;;;;;;;1.50;1.00;;;;;;;;;;4944671;29;20078;-86
2024/01/08 14:26:09;;;;;;;5.63;1.42;;;;;;;;;;4944168;29;20068;-87
2024/01/08 14:28:39;;;;;;;3.92;1.67;;;;;;;;;;4930242;29;20050;-87
2024/01/08 14:31:10;;;;;;;4.68;1.30;;;;;;;;;;4923627;29;20069;-88
2024/01/08 14:33:41;;;;;;;4.18;1.17;;;;;;;;;;4937804;29;20055;-89
2024/01/08 14:36:13;;;;;;;4.97;1.55;;;;;;;;;;4938675;29;20062;-88
2024/01/08 14:38:43;;;;;;;4.32;1.50;;;;;;;;;;4938601;29;20122;-86
2024/01/08 14:41:14;;;;;;;5.43;1.23;;;;;;;;;;4937906;29;20059;-88
2024/01/08 14:47:57;;;;;;;4.88;1.27;;;;;;;;;;4943155;28;20048;-87
2024/01/08 14:50:28;;;;;;;3.35;1.45;;;;;;;;;;4919934;29;20424;-86
2024/01/08 14:52:59;;;;;;;3.35;1.30;;;;;;;;;;4924077;29;20410;-86
2024/01/08 14:55:29;;;;;;;2.10;1.38;;;;;;;;;;4956941;29;20051;-86
2024/01/08 14:58:01;;;;;;;4.88;1.50;;;;;;;;;;4939663;29;20062;-88
2024/01/08 15:00:31;;;;;;;5.15;1.50;;;;;;;;;;4940095;29;20051;-90
2024/01/08 15:03:03;;;;;;;;;;;;;;;;;;4923356;29;20062;-87
2024/01/08 15:05:34;;;;;;;3.58;1.30;;;;;;;;;;4939233;29;19922;-88
2024/01/08 15:08:07;;;;;;;6.32;1.55;;;;;;;;;;4928796;29;20051;-88
2024/01/08 15:10:40;;;;;;;4.70;1.58;;;;;;;;;;4941288;29;20070;-89
2024/01/08 15:13:36;;;;;;;8.48;2.40;;;;;;;;;;4944345;28;20506;-89
2024/01/08 15:16:06;;;;;;;7.32;3.05;;;;;;;;;;4927050;29;20410;-86
2024/01/08 15:18:37;;;;;;;4.32;1.50;;;;;;;;;;4948866;28;20058;-88
2024/01/08 15:21:08;;;;;;;3.88;1.85;;;;;;;;;;4949775;28;20050;-89
2024/01/08 15:23:39;;;;;;;7.13;2.40;;;;;;;;;;4929087;28;20049;-86
2024/01/08 15:26:11;;;;;;;4.75;2.28;;;;;;;;;;4944876;28;20472;-90
2024/01/08 15:28:46;;;;;;;4.90;2.05;;;;;;;;;;4940667;28;20055;-86
2024/01/08 15:31:18;;;;;;;4.05;2.03;;;;;;;;;;4957028;28;20054;-88
2024/01/08 15:34:19;;;;;;;7.72;2.03;;;;;;;;;;4963722;28;20065;-88
2024/01/08 15:36:50;;;;;;;11.30;2.30;;;;;;;;;;4941010;28;20043;-89